createdAt,value
2018-05-14T00:18:01.397Z,3.23
2018-05-14T00:38:32.972Z,3.70
2018-05-14T00:59:03.821Z,3.67
2018-05-14T01:19:33.525Z,3.23
2018-05-14T01:40:03.892Z,3.20
2018-05-14T02:00:35.871Z,3.53
2018-05-14T02:21:06.115Z,3.53
2018-05-14T02:41:36.660Z,4.03
2018-05-14T03:02:07.527Z,3.93
2018-05-14T03:22:38.674Z,3.43
2018-05-14T03:43:09.124Z,3.63
2018-05-14T04:24:39.512Z,3.77
2018-05-14T04:45:09.753Z,4.13
2018-05-14T05:05:40.185Z,4.33
2018-05-14T05:26:11.144Z,4.80
2018-05-14T05:46:41.079Z,3.60
2018-05-14T06:07:10.731Z,3.90
2018-05-14T06:27:41.147Z,3.90
2018-05-14T06:48:10.673Z,4.30
2018-05-14T07:08:43.065Z,4.30
2018-05-14T07:29:13.924Z,4.73
2018-05-14T07:49:44.721Z,5.00
2018-05-14T08:10:15.329Z,5.37
2018-05-14T08:30:45.368Z,5.00
2018-05-14T08:51:15.691Z,5.00
2018-05-14T09:11:46.552Z,4.93
2018-05-14T09:32:16.886Z,5.60
2018-05-14T09:52:48.367Z,5.90
2018-05-14T10:13:17.825Z,5.83
2018-05-14T10:33:47.717Z,7.77
2018-05-14T10:54:18.366Z,6.30
2018-05-14T11:14:51.521Z,6.67
2018-05-14T11:35:23.459Z,6.20
2018-05-14T12:16:36.441Z,6.03
2018-05-14T12:37:06.473Z,6.30
2018-05-14T12:57:36.998Z,6.47
2018-05-14T13:18:06.547Z,6.00
2018-05-14T13:38:39.342Z,5.37
2018-05-14T13:59:09.373Z,6.10
2018-05-14T14:19:39.607Z,7.10
2018-05-14T14:40:10.463Z,6.30
2018-05-14T15:00:40.807Z,5.27
2018-05-14T15:21:11.462Z,6.40
2018-05-14T16:02:22.586Z,7.00
2018-05-14T16:22:52.627Z,6.03
2018-05-14T16:43:22.860Z,5.90
2018-05-14T17:03:55.273Z,6.50
2018-05-14T17:24:24.141Z,6.20
2018-05-14T17:44:54.608Z,6.00
2018-05-14T18:05:24.156Z,6.03
2018-05-14T18:26:05.946Z,6.20
2018-05-14T18:47:32.099Z,5.70
2018-05-14T19:49:28.866Z,5.70
2018-05-14T20:10:00.810Z,6.60
2018-05-14T20:30:30.844Z,6.43
2018-05-14T20:51:01.903Z,6.10
2018-05-14T21:11:33.071Z,5.30
2018-05-14T21:32:03.518Z,6.70
2018-05-14T21:52:33.444Z,6.87
2018-05-14T22:13:03.673Z,6.70
2018-05-14T22:33:34.122Z,6.97
2018-05-14T23:14:42.910Z,7.80
2018-05-14T23:35:13.341Z,8.07
2018-05-14T23:55:42.764Z,8.77
